Terminal Aerodrome Forecast
Issued by NWS Wilmington, NC

Home | Current Version | Previous Version | Text Only | Print | Product List | Glossary On
Versions: 1 2 3 4 5 6 7 8 9 10 11 12 13 14 15 16 17 18 19 20
752
FTUS42 KILM 261120
TAFILM
TAF
KILM 261120Z 2612/2712 27007KT P6SM SCT015 BKN050
      TEMPO 2612/2614 BKN015
     FM261500 23009KT P6SM SCT050
      TEMPO 2615/2619 SCT025 BKN050
     FM270100 20004KT P6SM SCT250=

USA.gov is the U.S. government's official web portal to all federal, state and local government web resources and services.